createdAt,value
2017-11-17T00:01:09.643Z,2.57
2017-11-17T00:03:39.456Z,2.77
2017-11-17T00:06:08.554Z,2.30
2017-11-17T00:08:37.609Z,2.50
2017-11-17T00:11:05.910Z,2.70
2017-11-17T00:13:34.231Z,2.63
2017-11-17T00:16:02.584Z,4.13
2017-11-17T00:18:30.880Z,3.10
2017-11-17T00:20:59.194Z,2.70
2017-11-17T00:23:28.263Z,2.70
2017-11-17T00:25:57.338Z,2.83
2017-11-17T00:28:25.646Z,2.77
2017-11-17T00:30:53.994Z,3.03
2017-11-17T00:33:22.290Z,2.93
2017-11-17T00:35:50.608Z,3.60
2017-11-17T00:38:19.671Z,2.67
2017-11-17T00:40:48.004Z,3.63
2017-11-17T00:43:17.078Z,3.10
2017-11-17T00:45:45.410Z,3.80
2017-11-17T00:48:13.707Z,3.63
2017-11-17T00:50:42.100Z,6.40
2017-11-17T00:53:10.411Z,4.20
2017-11-17T00:55:38.713Z,5.73
2017-11-17T00:58:07.029Z,3.33
2017-11-17T01:00:35.329Z,3.43
2017-11-17T01:03:03.666Z,3.50
2017-11-17T01:05:31.979Z,3.73
2017-11-17T01:08:00.305Z,3.07
2017-11-17T01:10:29.375Z,3.30
2017-11-17T01:12:58.454Z,3.23
2017-11-17T01:15:26.761Z,2.77
2017-11-17T01:17:55.853Z,5.70
2017-11-17T01:20:24.176Z,2.60
2017-11-17T01:22:53.237Z,3.30
2017-11-17T01:25:21.567Z,2.80
2017-11-17T01:27:50.656Z,3.47
2017-11-17T01:30:19.715Z,2.77
2017-11-17T01:32:48.095Z,5.40
2017-11-17T01:35:16.399Z,2.87
2017-11-17T01:37:45.490Z,2.80
2017-11-17T01:40:14.566Z,2.70
2017-11-17T01:42:42.864Z,2.50
2017-11-17T01:45:11.162Z,2.73
2017-11-17T01:47:39.477Z,4.90
2017-11-17T01:50:07.809Z,2.67
2017-11-17T01:52:36.881Z,1.90
2017-11-17T01:55:05.199Z,3.00
2017-11-17T01:57:33.562Z,2.10
2017-11-17T02:00:01.879Z,2.50
2017-11-17T02:02:30.943Z,3.10
2017-11-17T02:04:59.257Z,2.60
2017-11-17T02:07:27.574Z,2.40
2017-11-17T02:09:55.870Z,2.30
2017-11-17T02:12:24.196Z,2.40
2017-11-17T02:14:52.511Z,2.40
2017-11-17T02:17:20.848Z,2.43
2017-11-17T02:19:49.936Z,2.17
2017-11-17T02:22:18.260Z,2.03
2017-11-17T02:24:47.345Z,2.90
2017-11-17T02:27:16.410Z,3.20
2017-11-17T02:29:44.707Z,2.17
2017-11-17T02:32:13.080Z,2.53
2017-11-17T02:34:41.456Z,1.90
2017-11-17T02:37:09.761Z,2.20
2017-11-17T02:39:38.063Z,2.30
2017-11-17T02:42:07.132Z,1.87
2017-11-17T02:44:36.231Z,2.03
2017-11-17T02:47:05.308Z,2.30
2017-11-17T02:49:33.606Z,3.43
2017-11-17T02:52:02.672Z,2.30
2017-11-17T02:54:30.977Z,2.70
2017-11-17T02:56:59.362Z,2.17
2017-11-17T02:59:27.756Z,3.27
2017-11-17T03:01:56.053Z,1.87
2017-11-17T03:04:24.362Z,2.27
2017-11-17T03:06:52.762Z,3.37
2017-11-17T03:09:21.067Z,2.53
2017-11-17T03:11:49.353Z,2.00
2017-11-17T03:14:17.648Z,2.23
2017-11-17T03:16:46.022Z,2.20
2017-11-17T03:19:14.343Z,2.10
2017-11-17T03:21:43.836Z,2.60
2017-11-17T03:24:13.748Z,2.50
2017-11-17T03:26:42.070Z,2.60
2017-11-17T03:29:10.372Z,2.53
2017-11-17T03:31:38.673Z,2.17
2017-11-17T03:34:07.019Z,3.53
2017-11-17T03:36:35.322Z,2.60
2017-11-17T03:39:03.769Z,2.57
2017-11-17T03:41:32.856Z,2.93
2017-11-17T03:44:01.932Z,2.30
2017-11-17T03:46:30.244Z,1.97
2017-11-17T03:48:59.409Z,2.60
2017-11-17T03:51:28.533Z,2.20
2017-11-17T03:53:57.601Z,2.83
2017-11-17T03:56:25.928Z,2.90
2017-11-17T03:58:55.006Z,3.70
2017-11-17T04:01:23.311Z,3.63
2017-11-17T04:03:52.408Z,3.10
2017-11-17T04:06:20.736Z,3.60
2017-11-17T04:08:49.136Z,3.97
2017-11-17T04:11:17.435Z,5.47
2017-11-17T04:13:45.793Z,6.07
2017-11-17T04:16:14.203Z,6.10
2017-11-17T04:18:42.517Z,6.10
2017-11-17T04:21:10.838Z,7.10
2017-11-17T04:23:39.159Z,10.43
2017-11-17T04:26:08.242Z,10.43
2017-11-17T04:28:38.138Z,11.00
2017-11-17T04:31:06.533Z,9.83
2017-11-17T04:33:34.821Z,8.27
2017-11-17T04:36:03.923Z,7.43
2017-11-17T04:38:32.407Z,8.13
2017-11-17T04:41:00.793Z,7.13
2017-11-17T04:43:29.253Z,8.40
2017-11-17T04:45:57.572Z,9.20
2017-11-17T04:48:25.872Z,6.60
2017-11-17T04:50:54.190Z,7.03
2017-11-17T04:53:22.493Z,8.30
2017-11-17T04:55:50.807Z,9.60
2017-11-17T04:58:19.890Z,7.43
2017-11-17T05:00:48.217Z,8.10
2017-11-17T05:03:16.519Z,9.50
2017-11-17T05:05:44.839Z,10.27
2017-11-17T05:08:13.158Z,9.40
2017-11-17T05:10:41.459Z,10.27
2017-11-17T05:13:09.773Z,8.97
2017-11-17T05:15:38.841Z,7.97
2017-11-17T05:18:07.183Z,8.43
2017-11-17T05:20:36.249Z,10.13
2017-11-17T05:23:05.353Z,8.97
2017-11-17T05:25:33.659Z,9.93
2017-11-17T05:28:02.740Z,9.40
2017-11-17T05:30:31.062Z,11.40
2017-11-17T05:32:59.392Z,15.80
2017-11-17T05:35:27.764Z,14.20
2017-11-17T05:37:56.080Z,10.80
2017-11-17T05:40:25.148Z,10.83
2017-11-17T05:42:54.256Z,11.27
2017-11-17T05:45:22.603Z,13.27
2017-11-17T05:47:50.900Z,14.13
2017-11-17T05:50:19.275Z,13.60
2017-11-17T05:52:47.689Z,13.70
2017-11-17T05:55:17.524Z,14.30
2017-11-17T05:57:46.596Z,11.63
2017-11-17T06:00:14.888Z,11.50
2017-11-17T06:02:44.827Z,12.77
2017-11-17T06:05:13.993Z,13.20
2017-11-17T06:07:42.382Z,13.30
2017-11-17T06:10:10.765Z,12.50
2017-11-17T06:12:39.102Z,12.73
2017-11-17T06:15:07.414Z,13.67
2017-11-17T06:17:35.718Z,12.00
2017-11-17T06:20:05.569Z,9.87
2017-11-17T06:22:33.880Z,10.50
2017-11-17T06:25:02.194Z,10.10
2017-11-17T06:27:30.501Z,10.00
2017-11-17T06:29:59.640Z,8.07
2017-11-17T06:32:27.960Z,6.63
2017-11-17T06:34:57.055Z,6.37
2017-11-17T06:37:25.364Z,6.80
2017-11-17T06:39:54.431Z,10.10
2017-11-17T06:42:22.814Z,8.23
2017-11-17T06:44:51.203Z,6.50
2017-11-17T06:47:21.025Z,5.80
2017-11-17T06:49:49.327Z,6.50
2017-11-17T06:52:18.402Z,6.70
2017-11-17T06:54:46.703Z,6.17
2017-11-17T06:57:15.765Z,6.30
2017-11-17T06:59:44.900Z,6.20
2017-11-17T07:02:13.980Z,5.50
2017-11-17T07:04:42.316Z,5.10
2017-11-17T07:07:10.613Z,5.20
2017-11-17T07:09:39.023Z,5.90
2017-11-17T07:12:07.349Z,5.77
2017-11-17T07:14:35.660Z,5.90
2017-11-17T07:17:03.978Z,5.10
2017-11-17T07:19:32.285Z,6.27
2017-11-17T07:22:01.363Z,5.90
2017-11-17T07:24:29.711Z,5.83
2017-11-17T07:26:58.056Z,5.70
2017-11-17T07:29:26.362Z,5.70
2017-11-17T07:31:54.672Z,6.03
2017-11-17T07:34:22.977Z,6.33
2017-11-17T07:39:25.848Z,6.40
2017-11-17T07:41:54.143Z,6.73
2017-11-17T07:44:22.527Z,5.53
2017-11-17T07:46:51.015Z,5.23
2017-11-17T07:49:19.391Z,5.10
2017-11-17T07:51:48.482Z,5.47
2017-11-17T07:54:16.903Z,5.57
2017-11-17T07:56:45.985Z,4.80
2017-11-17T07:59:15.889Z,5.80
2017-11-17T08:01:44.204Z,5.43
2017-11-17T08:04:13.266Z,5.70
2017-11-17T08:06:41.565Z,6.83
2017-11-17T08:09:10.741Z,5.40
2017-11-17T08:11:39.061Z,6.07
2017-11-17T08:14:08.201Z,7.50
2017-11-17T08:16:36.506Z,6.13
2017-11-17T08:19:04.829Z,6.40
2017-11-17T08:21:34.013Z,6.77
2017-11-17T08:24:02.338Z,6.80
2017-11-17T08:26:30.652Z,7.30
2017-11-17T08:28:58.959Z,7.53
2017-11-17T08:31:27.278Z,7.50
2017-11-17T08:33:55.572Z,6.70
2017-11-17T08:36:23.888Z,6.00
2017-11-17T08:38:53.714Z,7.60
2017-11-17T08:41:22.028Z,6.93
2017-11-17T08:43:51.099Z,5.97
2017-11-17T08:46:20.206Z,6.07
2017-11-17T08:48:48.518Z,6.30
2017-11-17T08:51:16.834Z,5.70
2017-11-17T08:53:45.154Z,6.00
2017-11-17T08:56:13.469Z,6.50
2017-11-17T08:58:41.791Z,7.10
2017-11-17T09:01:10.295Z,6.17
2017-11-17T09:03:39.418Z,6.30
2017-11-17T09:06:08.497Z,5.97
2017-11-17T09:08:36.825Z,6.60
2017-11-17T09:11:05.681Z,6.30
2017-11-17T09:13:34.367Z,5.70
2017-11-17T09:16:02.670Z,6.53
2017-11-17T09:18:31.740Z,6.97
2017-11-17T09:21:00.854Z,5.90
2017-11-17T09:23:29.152Z,5.50
2017-11-17T09:25:58.238Z,5.63
2017-11-17T09:28:27.311Z,4.10
2017-11-17T09:30:55.648Z,4.77
2017-11-17T09:33:24.142Z,3.97
2017-11-17T09:35:52.488Z,4.67
2017-11-17T09:38:21.577Z,5.10
2017-11-17T09:40:49.934Z,3.63
2017-11-17T09:43:18.246Z,1.80
2017-11-17T09:45:46.597Z,1.70
2017-11-17T09:48:14.993Z,2.10
2017-11-17T09:50:43.369Z,2.00
2017-11-17T09:53:11.768Z,2.50
2017-11-17T09:55:40.081Z,3.10
2017-11-17T09:58:08.407Z,3.23
2017-11-17T10:00:36.719Z,2.20
2017-11-17T10:03:05.028Z,2.07
2017-11-17T10:05:33.352Z,2.30
2017-11-17T10:08:02.073Z,3.03
2017-11-17T10:10:30.471Z,1.70
2017-11-17T10:12:59.553Z,1.83
2017-11-17T10:15:28.093Z,2.27
2017-11-17T10:17:56.394Z,2.10
2017-11-17T10:20:24.753Z,1.90
2017-11-17T10:22:53.066Z,2.73
2017-11-17T10:25:22.141Z,1.90
2017-11-17T10:27:50.445Z,2.27
2017-11-17T10:30:18.868Z,1.90
2017-11-17T10:32:48.045Z,2.03
2017-11-17T10:35:16.377Z,1.63
2017-11-17T10:37:44.689Z,1.60
2017-11-17T10:40:12.981Z,2.33
2017-11-17T10:42:41.293Z,2.10
2017-11-17T10:45:10.399Z,2.33
2017-11-17T10:47:39.478Z,2.53
2017-11-17T10:50:07.808Z,1.40
2017-11-17T10:52:36.115Z,1.53
2017-11-17T10:55:04.443Z,10.03
2017-11-17T10:57:33.529Z,1.90
2017-11-17T11:00:02.636Z,1.97
2017-11-17T11:02:31.724Z,1.77
2017-11-17T11:05:00.806Z,1.77
2017-11-17T11:07:30.661Z,1.67
2017-11-17T11:09:59.824Z,2.40
2017-11-17T11:12:28.155Z,1.50
2017-11-17T11:14:56.546Z,1.87
2017-11-17T11:17:24.848Z,2.07
2017-11-17T11:19:53.197Z,2.07
2017-11-17T11:22:21.506Z,2.30
2017-11-17T11:24:49.814Z,3.03
2017-11-17T11:27:18.198Z,2.17
2017-11-17T11:29:46.522Z,2.60
2017-11-17T11:32:14.836Z,2.20
2017-11-17T11:34:43.174Z,1.63
2017-11-17T11:37:12.338Z,1.90
2017-11-17T11:39:40.661Z,2.27
2017-11-17T11:42:09.750Z,2.50
2017-11-17T11:44:38.859Z,2.40
2017-11-17T11:47:07.181Z,1.63
2017-11-17T11:49:35.584Z,2.13
2017-11-17T11:52:03.960Z,1.70
2017-11-17T11:54:32.271Z,2.30
2017-11-17T11:57:00.587Z,1.43
2017-11-17T11:59:28.916Z,1.97
2017-11-17T12:01:57.230Z,2.10
2017-11-17T12:04:26.303Z,2.30
2017-11-17T12:06:54.606Z,2.27
2017-11-17T12:09:23.707Z,2.27
2017-11-17T12:11:52.104Z,2.47
2017-11-17T12:14:21.260Z,2.10
2017-11-17T12:16:49.601Z,1.83
2017-11-17T12:19:17.924Z,3.70
2017-11-17T12:21:46.246Z,2.07
2017-11-17T12:24:15.325Z,2.50
2017-11-17T12:26:44.412Z,2.43
2017-11-17T12:29:12.894Z,2.33
2017-11-17T12:31:41.208Z,3.33
2017-11-17T12:34:10.292Z,2.70
2017-11-17T12:36:38.650Z,3.00
2017-11-17T12:39:07.036Z,2.70
2017-11-17T12:41:35.336Z,2.50
2017-11-17T12:44:03.640Z,2.67
2017-11-17T12:46:32.717Z,2.47
2017-11-17T12:49:01.060Z,2.47
2017-11-17T12:51:29.372Z,3.03
2017-11-17T12:53:57.682Z,2.00
2017-11-17T12:56:26.774Z,2.17
2017-11-17T12:58:55.944Z,2.60
2017-11-17T13:01:24.277Z,2.70
2017-11-17T13:03:52.597Z,2.23
2017-11-17T13:06:21.491Z,3.80
2017-11-17T13:08:49.807Z,2.30
2017-11-17T13:11:18.865Z,1.90
2017-11-17T13:13:47.163Z,2.30
2017-11-17T13:16:15.465Z,2.57
2017-11-17T13:18:43.806Z,2.47
2017-11-17T13:21:12.127Z,2.83
2017-11-17T13:23:40.439Z,2.60
2017-11-17T13:26:08.758Z,2.47
2017-11-17T13:28:37.196Z,2.73
2017-11-17T13:31:06.291Z,3.13
2017-11-17T13:33:35.393Z,2.53
2017-11-17T13:36:04.516Z,1.83
2017-11-17T13:38:32.853Z,2.40
2017-11-17T13:41:01.171Z,2.33
2017-11-17T13:43:29.479Z,2.53
2017-11-17T13:45:57.845Z,2.23
2017-11-17T13:48:26.269Z,2.10
2017-11-17T13:50:54.650Z,2.07
2017-11-17T13:53:23.019Z,1.60
2017-11-17T13:55:51.331Z,1.90
2017-11-17T13:58:19.675Z,2.47
2017-11-17T14:00:48.069Z,1.90
2017-11-17T14:03:16.494Z,1.40
2017-11-17T14:05:45.576Z,2.23
2017-11-17T14:08:13.904Z,2.20
2017-11-17T14:10:42.249Z,1.80
2017-11-17T14:13:10.564Z,1.30
2017-11-17T14:15:38.885Z,2.33
2017-11-17T14:18:07.335Z,2.20
2017-11-17T14:20:35.638Z,1.50
2017-11-17T14:23:03.941Z,1.30
2017-11-17T14:25:32.252Z,1.30
2017-11-17T14:28:01.346Z,1.70
2017-11-17T14:30:30.409Z,1.73
2017-11-17T14:32:58.749Z,1.60
2017-11-17T14:35:27.070Z,2.17
2017-11-17T14:37:55.385Z,2.17
2017-11-17T14:40:24.465Z,1.73
2017-11-17T14:42:52.766Z,1.60
2017-11-17T14:45:21.871Z,2.13
2017-11-17T14:47:50.960Z,1.63
2017-11-17T14:50:19.285Z,2.50
2017-11-17T14:52:47.701Z,2.00
2017-11-17T14:55:16.017Z,2.17
2017-11-17T14:57:45.101Z,2.00
2017-11-17T15:00:13.418Z,2.10
2017-11-17T15:02:41.755Z,2.25
2017-11-17T15:05:10.079Z,2.62
2017-11-17T15:07:39.212Z,1.90
2017-11-17T15:10:07.537Z,2.03
2017-11-17T15:12:35.873Z,2.37
2017-11-17T15:15:04.189Z,2.90
2017-11-17T15:17:32.688Z,2.00
2017-11-17T15:20:01.027Z,1.83
2017-11-17T15:22:29.343Z,2.20
2017-11-17T15:24:57.858Z,1.97
2017-11-17T15:27:26.943Z,2.10
2017-11-17T15:29:56.183Z,3.27
2017-11-17T15:32:24.495Z,2.40
2017-11-17T15:34:52.804Z,3.20
2017-11-17T15:37:21.199Z,2.93
2017-11-17T15:39:50.278Z,3.30
2017-11-17T15:42:18.623Z,1.90
2017-11-17T15:44:46.933Z,2.03
2017-11-17T15:47:15.248Z,3.00
2017-11-17T15:49:44.403Z,2.80
2017-11-17T15:52:12.799Z,2.50
2017-11-17T15:54:41.330Z,2.83
2017-11-17T15:57:09.827Z,2.70
2017-11-17T15:59:38.137Z,3.13
2017-11-17T16:02:06.514Z,3.03
2017-11-17T16:04:34.834Z,4.00
2017-11-17T16:07:03.275Z,3.67
2017-11-17T16:09:31.584Z,3.00
2017-11-17T16:12:00.675Z,3.33
2017-11-17T16:14:28.999Z,3.30
2017-11-17T16:16:58.087Z,3.30
2017-11-17T16:19:27.285Z,2.93
2017-11-17T16:21:55.592Z,3.00
2017-11-17T16:24:23.901Z,3.67
2017-11-17T16:26:52.187Z,2.73
2017-11-17T16:29:20.522Z,3.23
2017-11-17T16:31:49.613Z,3.23
2017-11-17T16:34:18.707Z,3.40
2017-11-17T16:36:47.062Z,3.80
2017-11-17T16:39:15.390Z,3.70
2017-11-17T16:41:44.614Z,4.43
2017-11-17T16:44:12.937Z,3.80
2017-11-17T16:46:41.246Z,3.23
2017-11-17T16:49:10.426Z,4.03
2017-11-17T16:51:39.501Z,4.50
2017-11-17T16:54:07.899Z,3.77
2017-11-17T16:56:36.198Z,3.53
2017-11-17T16:59:05.256Z,3.47
2017-11-17T17:01:33.716Z,4.47
2017-11-17T17:04:02.792Z,3.70
2017-11-17T17:06:31.966Z,3.23
2017-11-17T17:09:00.429Z,3.53
2017-11-17T17:11:28.738Z,3.90
2017-11-17T17:13:57.060Z,3.23
2017-11-17T17:16:25.375Z,3.43
2017-11-17T17:18:53.001Z,4.67
2017-11-17T17:21:22.123Z,4.40
2017-11-17T17:23:50.428Z,4.00
2017-11-17T17:26:18.733Z,4.20
2017-11-17T17:28:48.527Z,3.80
2017-11-17T17:31:16.836Z,5.20
2017-11-17T17:33:45.258Z,4.20
2017-11-17T17:36:13.607Z,4.17
2017-11-17T17:38:41.885Z,3.90
2017-11-17T17:41:10.238Z,4.20
2017-11-17T17:43:38.550Z,4.20
2017-11-17T17:46:07.618Z,4.50
2017-11-17T17:48:35.935Z,3.93
2017-11-17T17:51:04.235Z,4.77
2017-11-17T17:53:33.311Z,5.47
2017-11-17T17:56:01.735Z,4.90
2017-11-17T17:58:30.038Z,5.50
2017-11-17T18:00:58.386Z,5.17
2017-11-17T18:03:26.727Z,6.07
2017-11-17T18:05:55.252Z,5.17
2017-11-17T18:08:24.402Z,5.27
2017-11-17T18:10:52.697Z,5.27
2017-11-17T18:13:21.009Z,4.93
2017-11-17T18:15:50.077Z,5.17
2017-11-17T18:18:18.480Z,5.97
2017-11-17T18:20:47.553Z,5.30
2017-11-17T18:23:15.867Z,4.53
2017-11-17T18:25:44.998Z,4.67
2017-11-17T18:28:14.303Z,3.93
2017-11-17T18:30:42.632Z,4.53
2017-11-17T18:33:11.782Z,4.63
2017-11-17T18:35:41.041Z,4.47
2017-11-17T18:38:09.412Z,4.83
2017-11-17T18:40:37.758Z,4.80
2017-11-17T18:43:06.044Z,5.20
2017-11-17T18:45:34.373Z,5.27
2017-11-17T18:48:02.661Z,6.47
2017-11-17T18:50:30.965Z,5.93
2017-11-17T18:52:59.333Z,6.23
2017-11-17T18:55:27.611Z,6.17
2017-11-17T18:57:56.682Z,5.73
2017-11-17T19:00:25.027Z,7.30
2017-11-17T19:02:54.076Z,7.43
2017-11-17T19:05:22.394Z,8.33
2017-11-17T19:07:50.792Z,6.10
2017-11-17T19:10:19.112Z,6.00
2017-11-17T19:12:47.465Z,6.30
2017-11-17T19:15:15.751Z,8.07
2017-11-17T19:17:44.058Z,8.10
2017-11-17T19:20:12.482Z,9.70
2017-11-17T19:22:41.558Z,8.43
2017-11-17T19:25:09.864Z,8.03
2017-11-17T19:27:39.100Z,9.50
2017-11-17T19:30:07.448Z,8.50
2017-11-17T19:32:36.524Z,8.23
2017-11-17T19:35:05.754Z,7.63
2017-11-17T19:37:34.049Z,7.70
2017-11-17T19:40:02.346Z,6.93
2017-11-17T19:42:30.735Z,7.87
2017-11-17T19:44:59.038Z,6.53
2017-11-17T19:47:28.869Z,8.50
2017-11-17T19:49:57.183Z,6.00
2017-11-17T19:52:25.499Z,6.20
2017-11-17T19:54:53.813Z,5.80
2017-11-17T19:57:22.120Z,5.47
2017-11-17T19:59:50.431Z,5.03
2017-11-17T20:02:18.884Z,5.30
2017-11-17T20:04:47.960Z,5.43
2017-11-17T20:07:16.271Z,6.53
2017-11-17T20:09:45.083Z,5.70
2017-11-17T20:12:13.401Z,5.60
2017-11-17T20:14:41.705Z,6.00
2017-11-17T20:17:10.776Z,4.70
2017-11-17T20:19:39.095Z,4.57
2017-11-17T20:22:08.260Z,5.47
2017-11-17T20:24:36.569Z,6.33
2017-11-17T20:27:05.644Z,6.33
2017-11-17T20:29:34.714Z,5.80
2017-11-17T20:32:03.020Z,8.00
2017-11-17T20:34:31.346Z,8.70
2017-11-17T20:37:00.443Z,8.03
2017-11-17T20:39:29.599Z,6.30
2017-11-17T20:41:57.897Z,5.70
2017-11-17T20:44:27.136Z,5.80
2017-11-17T20:46:55.468Z,5.40
2017-11-17T20:49:23.780Z,6.37
2017-11-17T20:51:53.695Z,6.10
2017-11-17T20:54:22.868Z,6.00
2017-11-17T20:56:51.352Z,5.70
2017-11-17T20:59:19.664Z,5.33
2017-11-17T21:01:48.736Z,5.57
2017-11-17T21:04:17.048Z,4.70
2017-11-17T21:06:46.109Z,4.77
2017-11-17T21:09:14.463Z,4.60
2017-11-17T21:11:42.779Z,5.53
2017-11-17T21:14:11.094Z,4.67
2017-11-17T21:16:40.163Z,5.17
2017-11-17T21:19:08.476Z,5.87
2017-11-17T21:21:37.538Z,5.90
2017-11-17T21:24:05.835Z,4.80
2017-11-17T21:26:34.196Z,4.77
2017-11-17T21:29:02.510Z,5.53
2017-11-17T21:31:30.824Z,4.30
2017-11-17T21:33:59.211Z,4.37
2017-11-17T21:36:27.631Z,4.57
2017-11-17T21:38:55.929Z,5.67
2017-11-17T21:41:24.240Z,4.60
2017-11-17T21:43:53.922Z,5.37
2017-11-17T21:46:22.255Z,5.40
2017-11-17T21:48:50.703Z,5.20
2017-11-17T21:51:19.760Z,4.40
2017-11-17T21:53:48.081Z,4.87
2017-11-17T21:56:16.440Z,4.90
2017-11-17T21:58:44.816Z,4.83
2017-11-17T22:01:13.147Z,4.80
2017-11-17T22:03:41.455Z,5.03
2017-11-17T22:06:09.780Z,5.07
2017-11-17T22:08:38.169Z,4.90
2017-11-17T22:11:06.539Z,4.87
2017-11-17T22:13:34.873Z,4.73
2017-11-17T22:16:03.180Z,5.93
2017-11-17T22:18:31.482Z,4.57
2017-11-17T22:20:59.803Z,4.83
2017-11-17T22:23:28.905Z,5.40
2017-11-17T22:25:57.306Z,5.10
2017-11-17T22:28:25.735Z,5.30
2017-11-17T22:30:54.068Z,6.03
2017-11-17T22:33:22.371Z,6.80
2017-11-17T22:35:50.717Z,6.23
2017-11-17T22:38:19.121Z,5.27
2017-11-17T22:40:47.432Z,4.00
2017-11-17T22:43:15.753Z,4.80
2017-11-17T22:45:44.282Z,4.47
2017-11-17T22:48:12.601Z,4.40
2017-11-17T22:50:40.971Z,4.57
2017-11-17T22:53:09.309Z,4.50
2017-11-17T22:55:37.626Z,3.40
2017-11-17T22:58:05.919Z,3.90
2017-11-17T23:00:34.237Z,4.13
2017-11-17T23:03:02.586Z,3.43
2017-11-17T23:05:30.888Z,4.23
2017-11-17T23:08:00.128Z,3.00
2017-11-17T23:10:28.514Z,3.90
2017-11-17T23:12:56.818Z,3.90
2017-11-17T23:15:25.341Z,4.37
2017-11-17T23:17:54.407Z,4.10
2017-11-17T23:20:22.710Z,3.27
2017-11-17T23:22:51.016Z,3.70
2017-11-17T23:25:20.115Z,3.27
2017-11-17T23:27:49.191Z,3.67
2017-11-17T23:30:19.053Z,3.20
2017-11-17T23:32:47.375Z,3.43
2017-11-17T23:35:15.689Z,2.90
2017-11-17T23:37:44.789Z,3.67
2017-11-17T23:40:13.979Z,3.50
2017-11-17T23:42:42.314Z,3.63
2017-11-17T23:45:10.786Z,3.00
2017-11-17T23:47:39.108Z,3.00
2017-11-17T23:50:08.929Z,2.80
2017-11-17T23:52:37.298Z,3.20
2017-11-17T23:55:05.593Z,2.87
2017-11-17T23:57:34.047Z,2.77
